Time;durP1;ratioP1;P1;durP2;ratioP2;P2;SDS_P1;SDS_P2;PMS_P1;PMS_P2;Temp;Humidity;BMP_temperature;BMP_pressure;BME280_temperature;BME280_humidity;BME280_pressure;Samples;Min_cycle;Max_cycle;Signal;HPM_P1;HPM_P2
2023/05/05 00:01:45;;;;;;;;;0.00;0.00;;;;;19.95;nan;100932.09;4870598;29;45444;-82
2023/05/05 00:04:10;;;;;;;;;0.00;0.00;;;;;19.90;nan;100915.13;4870932;29;45506;-82
2023/05/05 00:06:36;;;;;;;;;1.33;1.33;;;;;19.86;nan;100917.94;4870527;29;45692;-82
2023/05/05 00:09:01;;;;;;;;;1.50;1.00;;;;;19.82;nan;100911.69;4869140;29;45538;-82
2023/05/05 00:11:28;;;;;;;;;0.00;0.00;;;;;19.89;nan;100910.63;4870523;29;47064;-83
2023/05/05 00:13:53;;;;;;;;;1.00;1.00;;;;;19.77;nan;100925.31;4869738;29;46973;-83
2023/05/05 00:16:18;;;;;;;;;3.00;1.75;;;;;19.76;nan;100928.03;4855823;29;45735;-82
2023/05/05 00:18:44;;;;;;;;;1.00;1.00;;;;;19.70;nan;100920.91;4856036;29;45566;-83
2023/05/05 00:21:09;;;;;;;;;1.67;1.00;;;;;19.71;nan;100928.13;4854688;29;47396;-82
2023/05/05 00:23:36;;;;;;;;;1.00;1.00;;;;;19.83;nan;100921.56;4870173;29;45361;-83
2023/05/05 00:26:01;;;;;;;;;0.00;0.00;;;;;19.66;nan;100932.69;4870541;29;45308;-83
2023/05/05 00:28:27;;;;;;;;;2.67;1.00;;;;;19.63;nan;100910.25;4870303;29;45672;-83
2023/05/05 00:30:52;;;;;;;;;2.33;1.00;;;;;19.61;nan;100917.50;4870322;29;45951;-83
2023/05/05 00:33:17;;;;;;;;;1.00;1.00;;;;;19.55;nan;100903.22;4870838;29;45500;-83
2023/05/05 00:35:43;;;;;;;;;0.00;0.00;;;;;19.56;nan;100910.38;4853631;29;45997;-83
2023/05/05 00:38:09;;;;;;;;;0.00;0.00;;;;;19.54;nan;100908.66;4870607;29;45357;-82
2023/05/05 00:40:35;;;;;;;;;1.00;1.00;;;;;19.53;nan;100898.75;4870943;29;46476;-82
2023/05/05 00:43:01;;;;;;;;;3.00;1.75;;;;;19.45;nan;100912.44;4852619;29;45432;-82
2023/05/05 00:45:27;;;;;;;;;1.50;1.50;;;;;19.43;nan;100913.34;4873297;29;45452;-82
2023/05/05 00:48:00;;;;;;;;;1.75;1.50;;;;;19.58;nan;100904.97;4874053;29;45450;-82
2023/05/05 00:50:28;;;;;;;;;1.50;1.50;;;;;19.43;nan;100906.19;4874101;29;45113;-82
2023/05/05 00:52:57;;;;;;;;;1.00;1.00;;;;;19.42;nan;100908.91;4873548;29;45444;-82
2023/05/05 00:55:23;;;;;;;;;0.25;0.25;;;;;19.31;nan;100915.41;4858928;29;45428;-82
2023/05/05 00:57:50;;;;;;;;;0.25;0.25;;;;;19.32;nan;100922.56;4857273;29;45559;-83
2023/05/05 01:00:15;;;;;;;;;2.50;1.00;;;;;19.27;nan;100928.94;4857895;29;47024;-82
2023/05/05 01:02:41;;;;;;;;;1.00;1.00;;;;;19.23;nan;100911.97;4873471;29;45486;-83
2023/05/05 01:05:09;;;;;;;;;1.75;1.75;;;;;19.33;nan;100913.56;4874927;29;45458;-83
2023/05/05 01:07:52;;;;;;;;;2.25;2.00;;;;;19.45;nan;100922.31;4858276;29;45470;-83
2023/05/05 01:10:38;;;;;;;;;4.00;1.00;;;;;19.19;nan;100912.94;4872533;29;46165;-83
2023/05/05 01:13:25;;;;;;;;;0.00;0.00;;;;;19.34;nan;100912.63;4873344;29;45340;-83
2023/05/05 01:15:56;;;;;;;;;1.25;1.00;;;;;19.34;nan;100909.94;4872907;29;44782;-83
2023/05/05 01:18:36;;;;;;;;;2.75;1.75;;;;;19.29;nan;100902.84;4872696;29;44833;-83
2023/05/05 01:21:07;;;;;;;;;2.00;2.00;;;;;19.07;nan;100891.59;4875396;29;46090;-83
2023/05/05 01:24:27;;;;;;;;;0.75;0.75;;;;;19.31;nan;100899.22;4876212;29;45470;-82
2023/05/05 01:27:24;;;;;;;;;2.00;1.00;;;;;19.29;nan;100901.06;4874204;29;45455;-82
2023/05/05 01:30:19;;;;;;;;;1.50;1.50;;;;;19.22;nan;100893.09;4877267;29;45665;-83
2023/05/05 01:32:54;;;;;;;;;1.00;1.00;;;;;19.14;nan;100886.03;4859923;29;48440;-83
2023/05/05 01:35:27;;;;;;;;;1.00;1.00;;;;;19.10;nan;100899.63;4872221;29;45481;-83
2023/05/05 01:38:07;;;;;;;;;1.00;1.00;;;;;19.13;nan;100889.66;4855825;29;45462;-83
2023/05/05 01:40:39;;;;;;;;;1.50;1.50;;;;;18.99;nan;100876.44;4871431;29;45472;-83
2023/05/05 01:43:07;;;;;;;;;1.25;1.25;;;;;18.94;nan;100872.94;4854453;29;47278;-83
2023/05/05 01:45:36;;;;;;;;;1.00;1.00;;;;;18.89;nan;100864.06;4872346;29;45458;-83
2023/05/05 01:48:03;;;;;;;;;2.00;1.00;;;;;18.87;nan;100865.91;4872357;29;45419;-83
2023/05/05 01:50:30;;;;;;;;;2.00;2.00;;;;;18.79;nan;100865.16;4871816;29;45486;-83
2023/05/05 01:52:56;;;;;;;;;2.00;2.00;;;;;18.78;nan;100855.22;4854190;29;47753;-83
2023/05/05 01:58:44;;;;;;;;;2.33;1.33;;;;;18.79;nan;100873.22;4871955;29;45590;-83
2023/05/05 02:01:12;;;;;;;;;2.50;1.25;;;;;18.81;nan;100876.78;4870216;29;45628;-83
2023/05/05 02:03:39;;;;;;;;;2.00;1.50;;;;;18.83;nan;100885.72;4854783;29;47022;-83
2023/05/05 02:06:07;;;;;;;;;2.00;1.00;;;;;18.84;nan;100886.63;4877332;29;45377;-83
2023/05/05 02:12:37;;;;;;;;;3.00;3.00;;;;;18.86;nan;100869.50;4890901;29;44804;-83
2023/05/05 02:15:03;;;;;;;;;1.00;1.00;;;;;18.66;nan;100885.09;4891609;29;47168;-82
2023/05/05 02:17:29;;;;;;;;;0.67;0.67;;;;;18.61;nan;100881.59;4892985;29;45510;-82
2023/05/05 02:19:57;;;;;;;;;2.33;1.67;;;;;18.70;nan;100884.13;4893367;29;45563;-82
2023/05/05 02:22:23;;;;;;;;;2.00;2.00;;;;;18.60;nan;100883.38;4891071;29;45481;-82
2023/05/05 02:24:49;;;;;;;;;3.00;2.00;;;;;18.65;nan;100902.19;4888881;29;47354;-82
2023/05/05 02:27:17;;;;;;;;;2.00;1.67;;;;;18.73;nan;100900.25;4891182;29;45315;-83
2023/05/05 02:29:49;;;;;;;;;1.33;1.33;;;;;18.74;nan;100902.00;4888464;29;45430;-83
2023/05/05 02:32:26;;;;;;;;;3.00;3.00;;;;;18.70;nan;100903.84;4891031;29;44739;-82
2023/05/05 02:34:54;;;;;;;;;3.00;3.00;;;;;18.63;nan;100909.41;4890838;29;46268;-82
2023/05/05 02:37:26;;;;;;;;;1.67;1.67;;;;;18.68;nan;100911.06;4874363;29;45799;-82
2023/05/05 02:40:12;;;;;;;;;2.33;1.67;;;;;18.72;nan;100902.06;4873802;29;45496;-82
2023/05/05 02:42:40;;;;;;;;;2.00;2.00;;;;;18.59;nan;100909.44;4874347;29;45258;-82
2023/05/05 02:45:17;;;;;;;;;2.00;1.00;;;;;18.70;nan;100900.28;4890386;29;46344;-82
2023/05/05 02:47:42;;;;;;;;;1.67;1.67;;;;;18.55;nan;100890.66;4891005;29;45478;-83
2023/05/05 02:50:09;;;;;;;;;2.00;2.00;;;;;18.64;nan;100892.31;4890974;29;46016;-81
2023/05/05 02:52:35;;;;;;;;;1.00;1.00;;;;;18.50;nan;100887.16;4890135;29;45451;-82
2023/05/05 02:55:06;;;;;;;;;3.00;2.33;;;;;18.68;nan;100889.53;4872389;29;48251;-82
2023/05/05 02:57:48;;;;;;;;;2.67;2.67;;;;;18.68;nan;100894.91;4888929;29;45422;-82
2023/05/05 03:00:26;;;;;;;;;2.67;1.00;;;;;18.66;nan;100899.44;4873837;29;45435;-82
2023/05/05 03:03:17;;;;;;;;;4.00;2.67;;;;;18.73;nan;100903.81;4873698;29;45436;-82
2023/05/05 03:06:04;;;;;;;;;3.00;3.00;;;;;18.68;nan;100880.56;4889399;29;45339;-82
2023/05/05 03:08:39;;;;;;;;;3.00;2.00;;;;;18.62;nan;100876.16;4872584;29;46122;-83
2023/05/05 03:11:06;;;;;;;;;2.67;2.67;;;;;18.56;nan;100882.56;4889052;29;45452;-82
2023/05/05 03:13:38;;;;;;;;;3.33;3.33;;;;;18.64;nan;100879.72;4874375;29;45764;-83
2023/05/05 03:16:06;;;;;;;;;1.00;1.00;;;;;18.56;nan;100863.72;4890423;29;46362;-83
2023/05/05 03:18:33;;;;;;;;;1.67;1.67;;;;;18.58;nan;100859.19;4873417;29;45517;-82
2023/05/05 03:21:06;;;;;;;;;3.67;2.67;;;;;18.65;nan;100864.47;4873713;29;45439;-83
2023/05/05 03:23:32;;;;;;;;;2.00;2.00;;;;;18.55;nan;100864.63;4872384;29;45143;-82
2023/05/05 03:25:58;;;;;;;;;1.75;1.75;;;;;18.52;nan;100870.06;4889277;29;45535;-83
2023/05/05 03:28:23;;;;;;;;;3.50;2.00;;;;;18.47;nan;100876.44;4887934;29;45509;-83
2023/05/05 03:30:49;;;;;;;;;3.33;3.33;;;;;18.50;nan;100887.16;4872066;29;45348;-83
2023/05/05 03:33:14;;;;;;;;;3.00;2.00;;;;;18.53;nan;100898.75;4873698;29;45455;-83
2023/05/05 03:35:40;;;;;;;;;2.00;2.00;;;;;18.50;nan;100893.44;4891075;29;46141;-83
2023/05/05 03:38:05;;;;;;;;;4.67;4.00;;;;;18.46;nan;100889.03;4872545;29;45419;-84
2023/05/05 03:40:31;;;;;;;;;23.00;17.00;;;;;18.50;nan;100903.31;4889097;29;45401;-83
2023/05/05 03:42:58;;;;;;;;;5.33;4.67;;;;;18.55;nan;100901.44;4872192;29;45346;-83
2023/05/05 03:45:23;;;;;;;;;2.00;2.00;;;;;18.45;nan;100910.59;4887246;29;48052;-84
2023/05/05 03:47:49;;;;;;;;;4.25;3.00;;;;;18.44;nan;100904.31;4872327;29;45468;-83
2023/05/05 03:50:14;;;;;;;;;1.67;1.67;;;;;18.43;nan;100909.72;4889198;29;45554;-83
2023/05/05 03:52:39;;;;;;;;;4.00;3.00;;;;;18.39;nan;100909.75;4889168;29;45463;-83
2023/05/05 03:55:05;;;;;;;;;2.00;0.00;;;;;18.43;nan;100913.28;4872806;29;48144;-82
2023/05/05 03:57:32;;;;;;;;;1.00;1.00;;;;;18.42;nan;100911.53;4872901;29;45894;-82
2023/05/05 03:59:58;;;;;;;;;2.00;2.00;;;;;18.43;nan;100913.28;4888579;29;45530;-82
2023/05/05 04:02:23;;;;;;;;;1.33;1.33;;;;;18.41;nan;100915.13;4890848;29;45411;-82
2023/05/05 04:04:49;;;;;;;;;2.00;2.00;;;;;18.39;nan;100911.56;4888099;29;48161;-83
2023/05/05 04:07:16;;;;;;;;;3.33;3.00;;;;;18.54;nan;100929.28;4892109;29;45394;-83
2023/05/05 04:09:43;;;;;;;;;3.00;1.67;;;;;18.37;nan;100930.44;4872817;29;45715;-83
2023/05/05 04:12:12;;;;;;;;;1.00;1.00;;;;;18.47;nan;100931.19;4872061;29;45408;-83
2023/05/05 04:14:37;;;;;;;;;2.00;2.00;;;;;18.37;nan;100926.84;4888600;29;45398;-83
2023/05/05 04:17:03;;;;;;;;;3.00;3.00;;;;;18.44;nan;100936.63;4872184;29;45893;-83
2023/05/05 04:19:33;;;;;;;;;3.00;3.00;;;;;18.53;nan;100916.72;4873230;29;45323;-82
2023/05/05 04:21:59;;;;;;;;;2.67;2.67;;;;;18.40;nan;100934.91;4890589;29;45559;-84
2023/05/05 04:24:25;;;;;;;;;4.67;3.00;;;;;18.40;nan;100934.91;4873111;29;47025;-83
2023/05/05 04:26:51;;;;;;;;;2.00;2.00;;;;;18.43;nan;100923.19;4871942;29;45539;-82
2023/05/05 04:29:16;;;;;;;;;3.00;2.00;;;;;18.45;nan;100932.13;4871106;29;45436;-82
2023/05/05 04:31:44;;;;;;;;;2.67;2.67;;;;;18.53;nan;100931.09;4888644;29;45867;-83
2023/05/05 04:34:09;;;;;;;;;2.33;2.33;;;;;18.35;nan;100942.13;4872368;29;47088;-83
2023/05/05 04:36:35;;;;;;;;;2.00;2.00;;;;;18.30;nan;100941.31;4871260;29;45339;-83
2023/05/05 04:39:00;;;;;;;;;1.00;1.00;;;;;18.24;nan;100938.69;4890057;29;45396;-83
2023/05/05 04:41:26;;;;;;;;;3.00;3.00;;;;;18.25;nan;100945.88;4889122;29;45424;-83
2023/05/05 04:43:54;;;;;;;;;3.00;2.00;;;;;18.37;nan;100937.63;4870421;29;48291;-83
2023/05/05 04:46:20;;;;;;;;;3.00;1.33;;;;;18.25;nan;100951.25;4888547;29;45463;-82
2023/05/05 04:48:46;;;;;;;;;3.00;3.00;;;;;18.22;nan;100945.91;4889253;29;45568;-82
2023/05/05 04:51:11;;;;;;;;;4.33;3.00;;;;;18.19;nan;100952.25;4886435;29;45384;-84
2023/05/05 04:53:38;;;;;;;;;2.67;2.00;;;;;18.33;nan;100949.34;4888232;29;45485;-83
2023/05/05 04:56:04;;;;;;;;;4.33;4.33;;;;;18.16;nan;100942.41;4887853;29;45437;-82
2023/05/05 04:58:30;;;;;;;;;3.67;3.67;;;;;18.19;nan;100957.63;4873023;29;45456;-82
2023/05/05 05:00:55;;;;;;;;;2.67;2.67;;;;;18.17;nan;100960.31;4890840;29;45526;-82
2023/05/05 05:03:20;;;;;;;;;2.33;2.33;;;;;18.20;nan;100959.41;4871280;29;46889;-82
2023/05/05 05:05:45;;;;;;;;;4.00;4.00;;;;;18.16;nan;100953.19;4871869;29;45845;-82
2023/05/05 05:08:11;;;;;;;;;5.00;2.00;;;;;18.16;nan;100949.59;4870860;29;45545;-83
2023/05/05 05:10:36;;;;;;;;;5.00;5.00;;;;;18.19;nan;100955.81;4873133;29;45280;-83
2023/05/05 05:13:09;;;;;;;;;10.33;10.33;;;;;18.31;nan;100946.66;4889916;29;45362;-82
2023/05/05 05:15:37;;;;;;;;;4.00;4.00;;;;;18.03;nan;100946.16;4870291;29;45578;-82
2023/05/05 05:18:03;;;;;;;;;1.50;1.50;;;;;17.99;nan;100939.06;4870381;29;45330;-83
2023/05/05 05:20:31;;;;;;;;;2.25;2.00;;;;;18.18;nan;100950.47;4855560;29;45427;-83
2023/05/05 05:22:57;;;;;;;;;3.33;3.33;;;;;18.07;nan;100953.28;4873996;29;45278;-86
2023/05/05 05:25:23;;;;;;;;;3.00;3.00;;;;;18.03;nan;100946.16;4857718;29;45536;-84
2023/05/05 05:27:48;;;;;;;;;5.00;3.33;;;;;18.04;nan;100968.59;4873245;29;45515;-83
2023/05/05 05:30:14;;;;;;;;;3.00;3.00;;;;;18.05;nan;100971.25;4857955;29;45447;-83
2023/05/05 05:32:40;;;;;;;;;3.00;3.00;;;;;17.96;nan;100968.72;4861119;29;47225;-84
2023/05/05 05:38:27;;;;;;;;;3.67;3.33;;;;;18.06;nan;100973.06;4877119;29;45507;-84
2023/05/05 05:40:53;;;;;;;;;3.00;3.00;;;;;18.04;nan;100972.19;4862842;29;45340;-82
2023/05/05 05:43:21;;;;;;;;;3.33;3.33;;;;;18.19;nan;100968.38;4878952;29;47394;-83
2023/05/05 05:45:49;;;;;;;;;4.00;3.00;;;;;18.17;nan;100987.25;4876184;29;45492;-84
2023/05/05 05:48:14;;;;;;;;;4.33;4.33;;;;;18.03;nan;100977.59;4872472;29;45833;-84
2023/05/05 05:50:40;;;;;;;;;5.00;5.00;;;;;18.04;nan;100991.03;4859633;29;45308;-82
2023/05/05 05:53:05;;;;;;;;;4.00;4.00;;;;;18.06;nan;100986.50;4875158;29;45905;-83
2023/05/05 05:55:34;;;;;;;;;3.33;3.00;;;;;18.08;nan;100989.19;4875199;29;45456;-83
2023/05/05 05:58:05;;;;;;;;;3.00;3.00;;;;;18.25;nan;100986.25;4874223;29;44855;-82
2023/05/05 06:00:31;;;;;;;;;2.33;2.33;;;;;18.07;nan;100988.28;4877493;29;45293;-83
2023/05/05 06:02:56;;;;;;;;;4.67;3.00;;;;;18.11;nan;100994.53;4871361;29;47183;-83
2023/05/05 06:05:21;;;;;;;;;3.00;3.00;;;;;18.11;nan;100992.72;4857420;29;45568;-83
2023/05/05 06:11:09;;;;;;;;;2.00;2.00;;;;;18.14;nan;100997.19;4889060;29;45512;-83
2023/05/05 06:13:44;;;;;;;;;1.33;1.00;;;;;18.13;nan;100998.97;4892441;29;46065;-83
2023/05/05 06:16:09;;;;;;;;;2.00;2.00;;;;;18.16;nan;101006.13;4881317;29;46099;-83
2023/05/05 06:18:35;;;;;;;;;1.33;1.33;;;;;18.10;nan;101001.72;4858778;29;45431;-83
2023/05/05 06:21:01;;;;;;;;;2.00;2.00;;;;;18.09;nan;101010.69;4858876;29;45502;-85
2023/05/05 06:23:38;;;;;;;;;2.00;2.00;;;;;18.18;nan;101009.69;4859641;29;48312;-82
2023/05/05 06:26:05;;;;;;;;;3.00;2.00;;;;;18.06;nan;100988.31;4858319;29;45378;-85
2023/05/05 06:28:30;;;;;;;;;1.33;1.33;;;;;18.03;nan;100994.63;4873093;29;45467;-84
2023/05/05 06:30:55;;;;;;;;;2.75;2.75;;;;;18.05;nan;101008.06;4875508;29;45850;-84
2023/05/05 06:33:21;;;;;;;;;3.25;3.25;;;;;17.97;nan;101000.06;4877002;29;45478;-83
2023/05/05 06:35:50;;;;;;;;;5.00;2.33;;;;;18.14;nan;101007.97;4856777;29;44769;-84
2023/05/05 06:38:16;;;;;;;;;1.25;1.25;;;;;17.99;nan;100996.44;4874013;29;45455;-84
2023/05/05 06:40:42;;;;;;;;;4.25;0.50;;;;;18.10;nan;100999.03;4874385;29;45485;-85
2023/05/05 06:43:08;;;;;;;;;2.67;2.67;;;;;18.17;nan;100997.13;4872057;29;45858;-84
2023/05/05 06:45:34;;;;;;;;;3.00;3.00;;;;;18.29;nan;100994.28;4872542;29;45443;-84
2023/05/05 06:48:00;;;;;;;;;2.67;2.67;;;;;18.16;nan;100990.88;4873101;29;44800;-84
2023/05/05 06:50:25;;;;;;;;;2.00;2.00;;;;;18.19;nan;100990.81;4856984;29;45413;-84
2023/05/05 06:52:52;;;;;;;;;3.33;2.67;;;;;18.16;nan;100985.47;4867198;29;46771;-83
2023/05/05 06:55:17;;;;;;;;;2.00;2.00;;;;;18.24;nan;100992.53;4856672;29;45376;-83
2023/05/05 06:57:44;;;;;;;;;3.00;2.00;;;;;18.33;nan;100981.66;4855646;29;44855;-83
2023/05/05 07:00:13;;;;;;;;;2.00;2.00;;;;;18.31;nan;100983.50;4871352;29;45386;-83
2023/05/05 07:02:42;;;;;;;;;2.00;1.67;;;;;18.36;nan;101004.06;4849750;29;47222;-84
2023/05/05 07:05:11;;;;;;;;;2.00;2.00;;;;;18.29;nan;100977.22;4872974;29;45554;-84
2023/05/05 07:07:37;;;;;;;;;1.50;1.50;;;;;18.41;nan;101005.78;4876163;29;45456;-84
2023/05/05 07:14:36;;;;;;;;;3.00;2.00;;;;;18.68;nan;101005.38;4873838;29;45459;-84
2023/05/05 07:17:10;;;;;;;;;4.33;2.67;;;;;18.65;nan;100996.47;4837874;29;44842;-84
2023/05/05 07:19:36;;;;;;;;;3.33;3.00;;;;;18.47;nan;101006.59;4873047;29;45461;-83
2023/05/05 07:22:02;;;;;;;;;2.50;2.50;;;;;18.56;nan;100995.69;4863592;29;45498;-85
2023/05/05 07:24:52;;;;;;;;;2.00;2.00;;;;;18.63;nan;101007.25;4842820;29;48241;-85
2023/05/05 07:27:19;;;;;;;;;2.00;2.00;;;;;18.38;nan;100979.81;4855881;29;44850;-85
2023/05/05 07:29:48;;;;;;;;;3.67;2.00;;;;;18.53;nan;100989.47;4855967;29;45508;-84
2023/05/05 07:32:17;;;;;;;;;2.67;1.67;;;;;18.63;nan;100984.81;4843187;29;45512;-84
2023/05/05 07:34:43;;;;;;;;;3.25;1.50;;;;;18.54;nan;100991.22;4858118;29;45488;-86
2023/05/05 07:37:08;;;;;;;;;2.00;2.00;;;;;18.55;nan;100977.75;4844981;29;45432;-84
2023/05/05 07:39:34;;;;;;;;;3.00;2.00;;;;;18.68;nan;100993.72;4855815;29;45544;-83
2023/05/05 07:42:14;;;;;;;;;;;;;;;;;;;;;
2023/05/05 07:44:48;;;;;;;;;1.00;1.00;;;;;18.93;nan;100972.69;4854884;29;74496;-83
2023/05/05 07:47:13;;;;;;;;;1.50;1.25;;;;;19.08;nan;100998.50;4843617;29;44858;-83
2023/05/05 07:49:42;;;;;;;;;3.25;2.75;;;;;19.37;nan;100998.88;4862594;29;45394;-81
2023/05/05 07:52:11;;;;;;;;;1.00;1.00;;;;;19.47;nan;101006.78;4861219;29;45604;-83
2023/05/05 07:54:48;;;;;;;;;2.00;2.00;;;;;19.49;nan;101021.13;4854945;29;45446;-84
2023/05/05 07:57:15;;;;;;;;;2.50;1.00;;;;;19.64;nan;101010.06;4854118;29;45587;-86
2023/05/05 07:59:44;;;;;;;;;1.00;1.00;;;;;19.67;nan;101015.38;4852617;29;45786;-83
2023/05/05 08:02:11;;;;;;;;;3.00;1.00;;;;;19.70;nan;101012.66;4847001;29;47656;-82
2023/05/05 08:04:38;;;;;;;;;2.25;2.25;;;;;19.84;nan;101011.53;4854399;29;47166;-84
2023/05/05 08:07:10;;;;;;;;;1.50;0.00;;;;;20.10;nan;101025.38;4855404;29;45421;-83
2023/05/05 08:09:53;;;;;;;;;2.25;2.00;;;;;20.27;nan;101026.84;4840590;29;45484;-84
2023/05/05 08:12:19;;;;;;;;;1.75;1.75;;;;;20.31;nan;101025.84;4851994;29;45435;-84
2023/05/05 08:14:55;;;;;;;;;2.25;1.00;;;;;20.63;nan;101018.88;4840250;29;46519;-84
2023/05/05 08:17:21;;;;;;;;;1.00;1.00;;;;;20.63;nan;101021.56;4879441;29;45483;-83
2023/05/05 08:19:52;;;;;;;;;2.00;2.00;;;;;20.83;nan;101038.22;4870552;29;45856;-83
2023/05/05 08:25:42;;;;;;;;;4.00;4.00;;;;;20.93;nan;100996.50;4871538;29;45284;-84
2023/05/05 08:30:43;;;;;;;;;2.00;2.00;;;;;21.12;nan;101023.97;4855353;29;46146;-80
2023/05/05 08:33:09;;;;;;;;;1.75;1.75;;;;;20.98;nan;101005.38;4850888;29;45423;-81
2023/05/05 08:35:34;;;;;;;;;1.00;1.00;;;;;21.19;nan;101030.13;4854090;29;45725;-81
2023/05/05 08:38:05;;;;;;;;;3.00;3.00;;;;;21.38;nan;101025.13;4854607;29;45402;-85
2023/05/05 08:40:33;;;;;;;;;1.75;1.00;;;;;21.61;nan;101032.66;4837123;29;46206;-84
2023/05/05 08:43:08;;;;;;;;;1.50;1.50;;;;;21.89;nan;101021.06;4856796;29;44821;-84
2023/05/05 08:45:34;;;;;;;;;0.75;0.75;;;;;22.20;nan;101036.41;4854912;29;45475;-82
2023/05/05 08:48:02;;;;;;;;;1.50;1.00;;;;;22.64;nan;101028.78;4852687;29;45486;-82
2023/05/05 08:51:12;;;;;;;;;0.75;0.75;;;;;22.90;nan;101028.84;4855853;29;45556;-83
2023/05/05 08:53:47;;;;;;;;;1.00;1.00;;;;;22.85;nan;101024.53;4840889;29;45537;-85
2023/05/05 08:56:14;;;;;;;;;2.00;2.00;;;;;22.74;nan;101022.16;4850406;29;45388;-83
2023/05/05 08:59:00;;;;;;;;;1.00;1.00;;;;;22.67;nan;101017.88;4838482;29;45323;-83
2023/05/05 09:01:47;;;;;;;;;;;;;;;;;;;;;
2023/05/05 09:04:22;;;;;;;;;2.75;2.75;;;;;22.69;nan;101022.31;4844275;29;65914;-84
2023/05/05 09:06:54;;;;;;;;;1.00;1.00;;;;;22.64;nan;100993.56;4837665;29;47258;-83
2023/05/05 09:09:45;;;;;;;;;;;;;;;;;;;;;
2023/05/05 09:12:17;;;;;;;;;1.00;1.00;;;;;23.30;nan;101032.97;4841510;29;69189;-83
2023/05/05 09:15:14;;;;;;;;;1.00;1.00;;;;;23.42;nan;101009.09;4843751;29;45406;-84
2023/05/05 09:18:15;;;;;;;;;2.50;1.00;;;;;23.41;nan;101004.56;4838989;29;46122;-84
2023/05/05 09:21:30;;;;;;;;;1.00;1.00;;;;;23.58;nan;101029.31;4858795;29;45164;-86
2023/05/05 09:24:11;;;;;;;;;1.00;1.00;;;;;23.46;nan;101035.19;4850747;29;44809;-85
2023/05/05 09:26:45;;;;;;;;;2.50;2.00;;;;;23.47;nan;101029.69;4860016;29;44822;-84
2023/05/05 09:29:56;;;;;;;;;;;;;;;;;;;;;
2023/05/05 09:32:56;;;;;;;;;1.25;1.25;;;;;23.59;nan;101005.75;4824212;29;72097;-85
2023/05/05 09:35:24;;;;;;;;;1.00;1.00;;;;;23.70;nan;100993.56;4817090;29;44800;-84
2023/05/05 09:37:50;;;;;;;;;0.00;0.00;;;;;23.97;nan;101012.53;4826803;29;44853;-84
2023/05/05 09:40:21;;;;;;;;;0.50;0.50;;;;;24.32;nan;101003.03;4813766;29;46781;-85
2023/05/05 09:43:07;;;;;;;;;1.80;1.80;;;;;24.46;nan;101007.94;4802463;29;45544;-85
2023/05/05 09:45:51;;;;;;;;;1.25;1.25;;;;;24.30;nan;100966.00;4814093;29;45460;-85
2023/05/05 09:55:30;;;;;;;;;1.25;0.00;;;;;23.75;nan;100991.59;4791693;29;45519;-85
2023/05/05 10:05:51;;;;;;;;;1.00;1.00;;;;;23.19;nan;100952.88;4716867;30;45577;-86
2023/05/05 10:11:15;;;;;;;;;1.00;0.75;;;;;22.92;nan;100959.16;4695537;30;45300;-85
2023/05/05 10:14:27;;;;;;;;;1.00;1.00;;;;;23.10;nan;100975.78;4711598;30;45323;-84
2023/05/05 10:17:00;;;;;;;;;0.50;0.50;;;;;23.03;nan;100953.44;4687612;30;45597;-84
2023/05/05 10:19:43;;;;;;;;;1.00;1.00;;;;;23.24;nan;100968.06;4694153;30;45333;-84
2023/05/05 10:22:15;;;;;;;;;2.00;2.00;;;;;23.09;nan;100955.06;4706896;30;44850;-85
2023/05/05 10:28:18;;;;;;;;;1.50;1.50;;;;;23.30;nan;100967.84;4715936;30;45446;-84
2023/05/05 10:30:51;;;;;;;;;1.00;1.00;;;;;23.12;nan;100925.09;4721570;30;45472;-85
2023/05/05 10:36:21;;;;;;;;;3.00;1.75;;;;;23.60;nan;100923.38;4729898;30;44894;-83
2023/05/05 10:39:31;;;;;;;;;0.00;0.00;;;;;24.01;nan;100921.81;4721340;30;47106;-85
2023/05/05 10:42:04;;;;;;;;;0.75;0.75;;;;;24.24;nan;100933.59;4719643;30;45436;-82
2023/05/05 10:44:36;;;;;;;;;2.00;2.00;;;;;24.07;nan;100917.97;4733466;29;45341;-84
2023/05/05 10:47:49;;;;;;;;;1.75;1.75;;;;;24.15;nan;100952.03;4793410;29;45540;-84
2023/05/05 10:54:30;;;;;;;;;1.00;1.00;;;;;23.69;nan;100910.34;4863794;28;45441;-85
2023/05/05 10:57:08;;;;;;;;;4.00;3.25;;;;;23.81;nan;100913.56;4808351;29;45590;-85
2023/05/05 10:59:37;;;;;;;;;2.00;1.00;;;;;24.17;nan;100933.84;4778940;29;44842;-86
2023/05/05 11:02:44;;;;;;;;;0.25;0.25;;;;;24.20;nan;100922.00;4788097;29;45422;-86
2023/05/05 11:05:24;;;;;;;;;1.25;1.00;;;;;24.20;nan;100921.09;4766744;29;46091;-84
2023/05/05 11:07:51;;;;;;;;;1.00;1.00;;;;;24.24;nan;100933.59;4764052;29;45464;-84
2023/05/05 11:10:19;;;;;;;;;2.25;2.25;;;;;24.31;nan;100925.16;4764263;29;45486;-84
2023/05/05 11:13:02;;;;;;;;;0.00;0.00;;;;;24.55;nan;100915.16;4767824;29;48720;-85
2023/05/05 11:15:28;;;;;;;;;2.00;0.00;;;;;24.49;nan;100918.09;4782895;29;46107;-82
2023/05/05 11:18:20;;;;;;;;;1.00;1.00;;;;;24.80;nan;100915.94;4783026;29;45628;-84
2023/05/05 11:21:30;;;;;;;;;1.00;0.00;;;;;25.00;nan;100923.25;4783945;29;45503;-83
2023/05/05 11:24:26;;;;;;;;;0.00;0.00;;;;;25.10;nan;100919.19;4783344;29;46356;-83
2023/05/05 11:26:52;;;;;;;;;3.00;1.50;;;;;25.02;nan;100914.06;4785635;29;45476;-82
2023/05/05 11:29:20;;;;;;;;;2.00;0.50;;;;;25.04;nan;100886.81;5069066;23;45344;-82
2023/05/05 11:32:12;;;;;;;;;0.00;0.00;;;;;24.97;nan;100897.09;4888420;29;45595;-84
2023/05/05 11:34:48;;;;;;;;;0.00;0.00;;;;;24.87;nan;100883.00;4881455;29;47942;-86
2023/05/05 11:37:51;;;;;;;;;0.00;0.00;;;;;25.19;nan;100897.03;4877068;29;45268;-84
2023/05/05 11:40:32;;;;;;;;;0.00;0.00;;;;;25.54;nan;100905.47;4878830;29;45414;-85
2023/05/05 11:43:08;;;;;;;;;1.00;1.00;;;;;25.58;nan;100887.16;4876393;29;45325;-85
2023/05/05 11:45:33;;;;;;;;;1.00;1.00;;;;;25.47;nan;100902.16;4876140;29;46396;-86
2023/05/05 11:48:27;;;;;;;;;1.25;1.00;;;;;25.79;nan;100888.84;4874616;29;45434;-86
2023/05/05 11:51:13;;;;;;;;;0.25;0.25;;;;;25.62;nan;100895.09;4893726;28;45687;-84
2023/05/05 11:53:52;;;;;;;;;0.00;0.00;;;;;25.70;nan;100882.00;4895668;29;44900;-84
2023/05/05 11:56:20;;;;;;;;;0.00;0.00;;;;;25.48;nan;100886.69;4898356;28;45601;-85
2023/05/05 11:58:50;;;;;;;;;2.00;1.00;;;;;25.55;nan;100880.91;4897586;29;45562;-84
2023/05/05 12:01:16;;;;;;;;;1.50;1.00;;;;;25.49;nan;100872.09;4882964;29;45417;-82
2023/05/05 12:03:45;;;;;;;;;1.25;1.25;;;;;25.72;nan;100869.19;4897442;28;45391;-83
2023/05/05 12:06:12;;;;;;;;;0.25;0.25;;;;;25.80;nan;100876.16;4897857;29;45594;-84
2023/05/05 12:08:47;;;;;;;;;1.50;1.00;;;;;26.09;nan;100872.91;4896542;29;44894;-84
2023/05/05 12:11:15;;;;;;;;;1.75;1.00;;;;;26.08;nan;100876.63;4899612;29;45633;-86
2023/05/05 12:13:40;;;;;;;;;1.00;1.00;;;;;26.03;nan;100875.94;4890155;29;45510;-85
2023/05/05 12:16:09;;;;;;;;;2.00;0.75;;;;;26.19;nan;100864.31;4893562;29;45337;-85
2023/05/05 12:21:27;;;;;;;;;1.50;1.50;;;;;25.92;nan;100826.53;4886931;29;45818;-86
2023/05/05 12:23:52;;;;;;;;;1.50;1.50;;;;;26.17;nan;100860.78;4882451;29;45385;-86
2023/05/05 12:26:42;;;;;;;;;2.00;1.00;;;;;26.30;nan;100853.75;4884761;29;46921;-82
2023/05/05 12:29:11;;;;;;;;;0.75;0.75;;;;;26.26;nan;100849.41;4877618;29;45493;-83
2023/05/05 12:31:40;;;;;;;;;0.50;0.50;;;;;26.24;nan;100860.41;4877180;29;45342;-85
2023/05/05 12:34:08;;;;;;;;;1.00;1.00;;;;;26.31;nan;100852.78;4878008;29;45543;-86
2023/05/05 12:36:35;;;;;;;;;1.00;0.00;;;;;26.43;nan;100854.91;4878245;29;47082;-84
2023/05/05 12:42:26;;;;;;;;;0.25;0.25;;;;;26.24;nan;100849.50;4879441;29;45526;-83
2023/05/05 12:44:52;;;;;;;;;0.00;0.00;;;;;25.97;nan;100839.94;4879000;29;45355;-83
2023/05/05 12:47:31;;;;;;;;;0.00;0.00;;;;;26.11;nan;100838.28;4894364;29;48669;-85
2023/05/05 12:50:01;;;;;;;;;1.00;1.00;;;;;26.11;nan;100841.00;4894980;29;45854;-84
2023/05/05 12:53:00;;;;;;;;;1.00;1.00;;;;;26.12;nan;100839.19;4881362;29;45148;-84
2023/05/05 12:55:38;;;;;;;;;1.50;0.75;;;;;26.19;nan;100846.09;4841601;29;45399;-84
2023/05/05 12:58:04;;;;;;;;;0.50;0.50;;;;;26.05;nan;100840.44;4858240;29;47989;-84
2023/05/05 13:00:39;;;;;;;;;0.25;0.25;;;;;26.26;nan;100835.78;4860239;29;45423;-84
2023/05/05 13:03:05;;;;;;;;;1.00;1.00;;;;;26.13;nan;100821.88;4841765;29;45436;-83
2023/05/05 13:05:32;;;;;;;;;0.50;0.50;;;;;26.34;nan;100833.56;4853618;29;45526;-82
2023/05/05 13:07:58;;;;;;;;;1.00;1.00;;;;;26.19;nan;100824.28;4839638;29;45458;-83